Time;durP1;ratioP1;P1;durP2;ratioP2;P2;SDS_P1;SDS_P2;PMS_P1;PMS_P2;Temp;Humidity;BMP_temperature;BMP_pressure;BME280_temperature;BME280_humidity;BME280_pressure;Samples;Min_cycle;Max_cycle;Signal;HPM_P1;HPM_P2
2023/07/30 00:02:17;;;;;;;21.57;20.87;;;23.90;99.90;;;;;;4991933;28;20475;-64
2023/07/30 00:04:44;;;;;;;21.70;21.00;;;23.90;99.90;;;;;;4992203;28;20542;-64
2023/07/30 00:07:11;;;;;;;21.73;21.03;;;23.90;99.90;;;;;;4992026;28;20467;-64
2023/07/30 00:09:38;;;;;;;22.50;21.80;;;23.90;99.90;;;;;;4992152;28;20439;-64
2023/07/30 00:12:06;;;;;;;21.93;21.13;;;23.90;99.90;;;;;;4992186;28;20471;-64
2023/07/30 00:14:33;;;;;;;22.33;21.50;;;23.90;99.90;;;;;;4992198;28;20483;-64
2023/07/30 00:17:02;;;;;;;23.83;23.03;;;23.80;99.90;;;;;;4984045;28;20478;-64
2023/07/30 00:19:29;;;;;;;21.83;20.93;;;23.80;99.90;;;;;;4991994;28;20475;-64
2023/07/30 00:21:56;;;;;;;23.00;22.20;;;23.80;99.90;;;;;;4991790;28;20466;-64
2023/07/30 00:24:23;;;;;;;22.20;21.40;;;23.80;99.90;;;;;;4991990;28;20475;-64
2023/07/30 00:26:50;;;;;;;22.30;21.50;;;23.80;99.90;;;;;;4991854;28;20521;-64
2023/07/30 00:29:17;;;;;;;23.47;22.67;;;23.80;99.90;;;;;;4991790;28;20443;-64
2023/07/30 00:31:44;;;;;;;21.77;21.00;;;23.80;99.90;;;;;;4991621;28;20509;-64
2023/07/30 00:34:13;;;;;;;23.30;22.50;;;23.80;99.90;;;;;;4991830;28;20942;-64
2023/07/30 00:36:39;;;;;;;23.73;22.93;;;23.80;99.90;;;;;;4991667;28;20545;-64
2023/07/30 00:39:06;;;;;;;22.87;22.07;;;23.80;99.90;;;;;;4991734;28;20510;-65
2023/07/30 00:41:33;;;;;;;21.93;21.13;;;23.80;99.90;;;;;;4991847;28;20479;-64
2023/07/30 00:44:00;;;;;;;21.90;21.10;;;23.80;99.90;;;;;;4991733;28;20482;-64
2023/07/30 00:46:27;;;;;;;22.40;21.57;;;23.80;99.90;;;;;;4991656;28;20470;-64
2023/07/30 00:48:54;;;;;;;22.67;21.80;;;23.80;99.90;;;;;;4991505;28;20505;-65
2023/07/30 00:51:23;;;;;;;22.60;21.70;;;23.80;99.90;;;;;;4991549;28;20498;-64
2023/07/30 00:53:50;;;;;;;22.80;21.90;;;23.80;99.90;;;;;;4991733;28;20482;-64
2023/07/30 00:56:17;;;;;;;21.40;20.70;;;23.70;99.90;;;;;;4991643;28;20471;-64
2023/07/30 00:58:45;;;;;;;22.50;21.70;;;23.70;99.90;;;;;;4991397;28;20489;-64
2023/07/30 01:01:13;;;;;;;22.57;21.57;;;23.80;99.90;;;;;;4991366;28;20482;-64
2023/07/30 01:03:40;;;;;;;22.60;21.70;;;23.70;99.90;;;;;;4991701;28;21019;-64
2023/07/30 01:06:07;;;;;;;23.53;22.73;;;23.70;99.90;;;;;;4991590;28;20475;-64
2023/07/30 01:08:36;;;;;;;23.30;22.20;;;23.70;99.90;;;;;;4991688;28;20458;-64
2023/07/30 01:11:04;;;;;;;21.77;20.97;;;23.70;99.90;;;;;;4983763;28;20449;-64
2023/07/30 01:13:31;;;;;;;22.57;21.67;;;23.70;99.90;;;;;;4993701;28;20451;-65
2023/07/30 01:15:58;;;;;;;22.20;21.23;;;23.70;99.90;;;;;;4995150;28;20492;-64
2023/07/30 01:18:25;;;;;;;21.67;20.77;;;23.70;99.90;;;;;;4995230;28;20489;-64
2023/07/30 01:20:59;;;;;;;22.83;22.03;;;23.70;99.90;;;;;;4995011;28;20562;-64
2023/07/30 01:23:26;;;;;;;22.67;21.70;;;23.70;99.90;;;;;;4995261;28;20533;-64
2023/07/30 01:26:00;;;;;;;24.17;23.13;;;23.70;99.90;;;;;;4995042;28;20451;-64
2023/07/30 01:28:29;;;;;;;23.20;22.30;;;23.70;99.90;;;;;;4995050;28;20482;-64
2023/07/30 01:30:59;;;;;;;23.10;22.20;;;23.70;99.90;;;;;;4994953;28;20443;-64
2023/07/30 01:33:26;;;;;;;22.80;22.00;;;23.60;99.90;;;;;;4995100;28;20447;-64
2023/07/30 01:35:56;;;;;;;21.97;20.97;;;23.60;99.90;;;;;;4994881;28;20930;-64
2023/07/30 01:38:23;;;;;;;23.20;22.40;;;23.60;99.90;;;;;;4994900;28;20451;-64
2023/07/30 01:40:50;;;;;;;25.23;24.30;;;23.60;99.90;;;;;;4994714;28;20513;-63
2023/07/30 01:43:17;;;;;;;22.93;22.07;;;23.60;99.90;;;;;;4994783;28;20467;-64
2023/07/30 01:45:44;;;;;;;22.50;21.77;;;23.60;99.90;;;;;;4994597;28;20493;-64
2023/07/30 01:48:11;;;;;;;22.70;22.00;;;23.60;99.90;;;;;;4994602;28;20920;-63
2023/07/30 01:50:38;;;;;;;23.20;22.40;;;23.60;99.90;;;;;;4994959;28;20479;-63
2023/07/30 01:53:06;;;;;;;23.20;22.20;;;23.60;99.90;;;;;;4986776;28;20533;-64
2023/07/30 01:55:33;;;;;;;23.40;22.40;;;23.60;99.90;;;;;;4994572;28;20869;-64
2023/07/30 01:58:00;;;;;;;23.07;22.17;;;23.60;99.90;;;;;;4994487;28;20537;-64
2023/07/30 02:00:26;;;;;;;23.40;22.30;;;23.60;99.90;;;;;;4994662;28;20510;-64
2023/07/30 02:02:53;;;;;;;24.37;23.33;;;23.60;99.90;;;;;;4994279;28;20502;-64
2023/07/30 02:05:20;;;;;;;22.73;21.93;;;23.60;99.90;;;;;;4994324;28;20478;-64
2023/07/30 02:07:47;;;;;;;22.87;21.87;;;23.60;99.90;;;;;;4994161;28;20878;-64
2023/07/30 02:10:15;;;;;;;24.80;23.80;;;23.60;99.90;;;;;;4994375;28;20490;-64
2023/07/30 02:12:42;;;;;;;24.47;23.57;;;23.60;99.90;;;;;;4994084;28;20529;-64
2023/07/30 02:15:10;;;;;;;22.50;21.80;;;23.60;99.90;;;;;;4994362;28;20454;-64
2023/07/30 02:17:36;;;;;;;24.47;23.47;;;23.50;99.90;;;;;;4994087;28;20973;-64
2023/07/30 02:20:04;;;;;;;21.87;21.07;;;23.50;99.90;;;;;;4993986;28;20443;-64
2023/07/30 02:22:31;;;;;;;23.30;22.50;;;23.50;99.90;;;;;;4994157;28;21001;-64
2023/07/30 02:24:58;;;;;;;23.33;22.53;;;23.50;99.90;;;;;;4994120;28;20475;-64
2023/07/30 02:27:26;;;;;;;23.13;22.33;;;23.50;99.90;;;;;;4993839;28;20475;-64
2023/07/30 02:29:53;;;;;;;23.17;21.90;;;23.50;99.90;;;;;;4993793;28;20509;-64
2023/07/30 02:32:20;;;;;;;24.30;23.17;;;23.50;99.90;;;;;;4993838;28;20529;-64
2023/07/30 02:34:47;;;;;;;24.43;23.53;;;23.50;99.90;;;;;;4993809;28;20893;-64
2023/07/30 02:37:14;;;;;;;23.27;22.33;;;23.50;99.90;;;;;;4993751;28;20483;-63
2023/07/30 02:39:41;;;;;;;26.30;25.40;;;23.50;99.90;;;;;;4993744;28;20454;-64
2023/07/30 02:42:08;;;;;;;24.20;23.07;;;23.50;99.90;;;;;;4993578;28;20491;-64
2023/07/30 02:44:36;;;;;;;23.40;22.30;;;23.50;99.90;;;;;;4993618;28;20478;-64
2023/07/30 02:47:04;;;;;;;23.83;22.83;;;23.50;99.90;;;;;;4993360;28;20449;-63
2023/07/30 02:49:30;;;;;;;22.83;22.00;;;23.50;99.90;;;;;;4993559;28;20501;-64
2023/07/30 02:51:57;;;;;;;22.43;21.63;;;23.50;99.90;;;;;;4993409;28;20503;-65
2023/07/30 02:54:24;;;;;;;21.73;20.93;;;23.50;99.90;;;;;;4993535;28;20502;-64
2023/07/30 02:56:52;;;;;;;22.90;22.00;;;23.50;99.90;;;;;;4993302;28;20482;-64
2023/07/30 02:59:18;;;;;;;21.93;21.13;;;23.50;99.90;;;;;;4993404;28;20454;-64
2023/07/30 03:01:47;;;;;;;26.67;25.47;;;23.50;99.90;;;;;;5024540;22;20949;-63
2023/07/30 03:04:14;;;;;;;25.87;24.83;;;23.50;99.90;;;;;;5044375;28;20480;-63
2023/07/30 03:06:41;;;;;;;22.80;21.80;;;23.40;99.90;;;;;;5044111;28;20487;-64
2023/07/30 03:09:08;;;;;;;24.10;23.00;;;23.50;99.90;;;;;;5040645;28;20457;-63
2023/07/30 03:11:35;;;;;;;22.70;21.63;;;23.40;99.90;;;;;;5040772;28;20536;-63
2023/07/30 03:14:02;;;;;;;23.63;22.80;;;23.40;99.90;;;;;;5043545;28;20889;-63
2023/07/30 03:16:29;;;;;;;23.20;22.23;;;23.40;99.90;;;;;;5043943;28;20476;-64
2023/07/30 03:18:57;;;;;;;22.77;21.97;;;23.40;99.90;;;;;;5041818;28;20539;-63
2023/07/30 03:21:24;;;;;;;23.07;22.20;;;23.40;99.90;;;;;;5040405;28;20556;-64
2023/07/30 03:23:51;;;;;;;24.30;23.40;;;23.40;99.90;;;;;;5041742;28;20862;-63
2023/07/30 03:26:17;;;;;;;22.90;22.10;;;23.40;99.90;;;;;;5043789;28;20452;-62
2023/07/30 03:28:44;;;;;;;25.07;24.03;;;23.40;99.90;;;;;;5043210;28;20863;-64
2023/07/30 03:31:11;;;;;;;24.33;23.33;;;23.40;99.90;;;;;;5040386;28;20472;-62
2023/07/30 03:33:43;;;;;;;22.90;22.00;;;23.40;99.90;;;;;;5040249;28;20493;-63
2023/07/30 03:36:11;;;;;;;22.67;21.87;;;23.40;99.90;;;;;;5043345;28;20452;-63
2023/07/30 03:38:38;;;;;;;23.43;22.43;;;23.30;99.90;;;;;;5043703;28;20482;-64
2023/07/30 03:41:06;;;;;;;23.57;22.77;;;23.30;99.90;;;;;;5040124;28;20508;-63
2023/07/30 03:43:33;;;;;;;23.20;22.37;;;23.30;99.90;;;;;;5040108;28;20465;-64
2023/07/30 03:46:00;;;;;;;26.80;25.80;;;23.30;99.90;;;;;;5042521;28;20487;-64
2023/07/30 03:48:27;;;;;;;23.10;22.20;;;23.30;99.90;;;;;;5043372;28;20453;-63
2023/07/30 03:50:54;;;;;;;22.97;22.07;;;23.30;99.90;;;;;;5041750;28;20471;-63
2023/07/30 03:53:23;;;;;;;23.93;23.03;;;23.30;99.90;;;;;;5039931;28;20500;-62
2023/07/30 03:55:50;;;;;;;23.80;22.90;;;23.30;99.90;;;;;;5040960;28;20877;-63
2023/07/30 03:58:17;;;;;;;22.90;22.00;;;23.30;99.90;;;;;;5043263;28;20476;-63
2023/07/30 04:00:44;;;;;;;24.60;23.60;;;23.30;99.90;;;;;;5042918;28;20552;-62
2023/07/30 04:03:10;;;;;;;26.00;25.00;;;23.30;99.90;;;;;;5039755;28;20507;-63
2023/07/30 04:05:37;;;;;;;25.37;24.33;;;23.30;99.90;;;;;;5040007;28;20936;-63
2023/07/30 04:08:04;;;;;;;25.40;24.50;;;23.30;99.90;;;;;;5042435;28;20494;-62
2023/07/30 04:10:33;;;;;;;25.30;24.43;;;23.30;99.90;;;;;;5043157;28;20483;-62
2023/07/30 04:13:00;;;;;;;27.60;26.60;;;23.30;99.90;;;;;;5040728;28;20551;-64
2023/07/30 04:15:27;;;;;;;27.63;26.43;;;23.20;99.90;;;;;;5039640;28;20480;-63
2023/07/30 04:17:55;;;;;;;26.30;25.40;;;23.30;99.90;;;;;;5040823;28;20445;-63
2023/07/30 04:20:21;;;;;;;27.43;26.47;;;23.20;99.90;;;;;;5043051;28;20492;-64
2023/07/30 04:22:48;;;;;;;27.70;26.70;;;23.30;99.90;;;;;;5042248;28;20512;-63
2023/07/30 04:25:15;;;;;;;27.13;25.90;;;23.20;99.90;;;;;;5039435;28;20473;-64
2023/07/30 04:27:43;;;;;;;26.47;25.57;;;23.20;99.90;;;;;;5039345;28;20964;-62
2023/07/30 04:30:11;;;;;;;27.13;26.13;;;23.20;99.90;;;;;;5031707;28;20476;-64
2023/07/30 04:32:38;;;;;;;25.77;24.93;;;23.20;99.90;;;;;;5039439;28;20488;-62
2023/07/30 04:35:06;;;;;;;26.00;24.90;;;23.20;99.90;;;;;;5042374;28;20448;-63
2023/07/30 04:37:33;;;;;;;27.33;26.13;;;23.20;99.90;;;;;;5042513;28;20476;-63
2023/07/30 04:40:00;;;;;;;26.43;25.33;;;23.20;99.90;;;;;;5040473;28;20902;-64
2023/07/30 04:42:26;;;;;;;26.77;25.77;;;23.20;99.90;;;;;;5039210;28;21036;-64
2023/07/30 04:44:55;;;;;;;27.00;26.00;;;23.10;99.90;;;;;;5040470;28;20630;-64
2023/07/30 04:47:21;;;;;;;27.00;26.00;;;23.20;99.90;;;;;;5042883;28;20479;-63
2023/07/30 04:49:48;;;;;;;27.17;25.97;;;23.20;99.90;;;;;;5046432;28;20483;-63
2023/07/30 04:52:15;;;;;;;24.63;23.83;;;23.10;99.90;;;;;;5043405;28;20497;-63
2023/07/30 04:54:42;;;;;;;24.20;23.40;;;23.10;99.90;;;;;;5043390;28;20492;-64
2023/07/30 04:57:09;;;;;;;24.40;23.30;;;23.10;99.90;;;;;;5034880;28;20572;-64
2023/07/30 04:59:36;;;;;;;24.30;23.30;;;23.20;99.90;;;;;;5043359;28;20477;-63
2023/07/30 05:02:05;;;;;;;25.37;24.43;;;23.10;99.90;;;;;;5045422;28;20563;-62
2023/07/30 05:04:32;;;;;;;25.27;24.20;;;23.10;99.90;;;;;;5046615;28;20476;-63
2023/07/30 05:06:59;;;;;;;25.93;24.47;;;23.10;99.90;;;;;;5044381;28;20448;-62
2023/07/30 05:09:26;;;;;;;25.07;24.17;;;23.10;99.90;;;;;;5042818;28;20492;-63
2023/07/30 05:11:53;;;;;;;25.80;24.70;;;23.10;99.90;;;;;;5043986;28;20496;-62
2023/07/30 05:14:20;;;;;;;25.87;24.97;;;23.10;99.90;;;;;;5046452;28;20448;-63
2023/07/30 05:16:46;;;;;;;25.50;24.47;;;23.10;99.90;;;;;;5045942;28;20472;-64
2023/07/30 05:19:15;;;;;;;25.83;24.70;;;23.00;99.90;;;;;;5042651;28;20961;-62
2023/07/30 05:21:42;;;;;;;25.90;24.60;;;23.00;99.90;;;;;;5042566;28;20512;-63
2023/07/30 05:24:08;;;;;;;27.97;26.63;;;23.10;99.90;;;;;;5045775;28;20471;-64
2023/07/30 05:26:35;;;;;;;25.43;24.53;;;23.00;99.90;;;;;;5046138;28;20440;-61
2023/07/30 05:29:03;;;;;;;25.30;24.30;;;23.00;99.90;;;;;;5043534;28;20476;-63
2023/07/30 05:31:30;;;;;;;25.60;24.47;;;23.00;99.90;;;;;;5042454;28;20433;-63
2023/07/30 05:33:57;;;;;;;24.93;24.10;;;23.00;99.90;;;;;;5044233;28;20444;-63
2023/07/30 05:36:25;;;;;;;26.07;25.07;;;23.00;99.90;;;;;;5045733;28;20602;-63
2023/07/30 05:38:52;;;;;;;24.73;23.83;;;23.00;99.90;;;;;;5044640;28;20478;-63
2023/07/30 05:41:21;;;;;;;26.77;25.60;;;23.00;99.90;;;;;;5042237;28;20512;-63
2023/07/30 05:43:47;;;;;;;25.00;24.10;;;23.00;99.90;;;;;;5042470;28;20445;-63
2023/07/30 05:46:14;;;;;;;26.93;25.63;;;23.00;99.90;;;;;;5045688;28;20444;-63
2023/07/30 05:48:41;;;;;;;26.13;25.13;;;23.00;99.90;;;;;;5045615;28;20578;-63
2023/07/30 05:51:08;;;;;;;24.90;23.80;;;23.00;99.90;;;;;;5042573;28;20479;-63
2023/07/30 05:53:36;;;;;;;26.10;25.00;;;22.90;99.90;;;;;;5042045;28;20996;-63
2023/07/30 05:56:03;;;;;;;26.23;25.23;;;22.90;99.90;;;;;;5044427;28;20477;-63
2023/07/30 05:58:30;;;;;;;26.30;24.70;;;23.00;99.90;;;;;;5045185;28;20465;-63
2023/07/30 06:00:58;;;;;;;24.70;23.80;;;23.00;99.90;;;;;;5044079;28;20480;-63
2023/07/30 06:03:24;;;;;;;25.13;24.23;;;23.00;99.90;;;;;;5042172;28;20507;-62
2023/07/30 06:05:51;;;;;;;24.80;23.80;;;23.00;99.90;;;;;;5042457;28;20494;-64
2023/07/30 06:08:18;;;;;;;27.17;25.97;;;22.90;99.90;;;;;;5045308;28;20484;-63
2023/07/30 06:10:46;;;;;;;25.93;24.63;;;22.90;99.90;;;;;;5045383;28;20476;-63
2023/07/30 06:13:13;;;;;;;27.03;25.93;;;22.90;99.90;;;;;;5033840;28;20461;-63
2023/07/30 06:15:40;;;;;;;25.90;25.00;;;22.90;99.90;;;;;;5041786;28;20476;-64
2023/07/30 06:18:07;;;;;;;26.73;25.73;;;22.90;99.90;;;;;;5044224;28;20555;-63
2023/07/30 06:20:34;;;;;;;25.67;24.67;;;22.90;99.90;;;;;;5045150;28;20950;-63
2023/07/30 06:23:01;;;;;;;25.07;24.20;;;22.90;99.90;;;;;;5043172;28;20990;-63
2023/07/30 06:25:28;;;;;;;26.57;25.50;;;22.90;99.90;;;;;;5041583;28;20488;-64
2023/07/30 06:27:58;;;;;;;27.60;26.43;;;22.90;99.90;;;;;;5042402;28;20481;-63
2023/07/30 06:30:25;;;;;;;26.30;25.20;;;22.90;99.90;;;;;;5045084;28;20527;-62
2023/07/30 06:32:52;;;;;;;26.50;25.50;;;22.90;99.90;;;;;;5044220;28;20547;-64
2023/07/30 06:35:19;;;;;;;26.63;25.63;;;22.90;99.90;;;;;;5041474;28;20479;-63
2023/07/30 06:37:46;;;;;;;27.17;25.90;;;22.90;99.90;;;;;;5041173;28;20920;-62
2023/07/30 06:40:12;;;;;;;25.97;24.97;;;22.90;99.90;;;;;;5044717;28;20475;-62
2023/07/30 06:42:39;;;;;;;25.70;24.77;;;22.90;99.90;;;;;;5044509;28;20564;-64
2023/07/30 06:45:09;;;;;;;25.90;24.90;;;22.90;99.90;;;;;;5042163;28;20521;-64
2023/07/30 06:47:36;;;;;;;27.93;26.73;;;22.90;99.90;;;;;;5041247;28;20473;-63
2023/07/30 06:50:03;;;;;;;26.53;25.53;;;22.90;99.90;;;;;;5043140;28;20480;-64
2023/07/30 06:52:30;;;;;;;26.97;26.07;;;22.80;99.90;;;;;;5044387;28;20456;-63
2023/07/30 06:54:57;;;;;;;27.23;25.80;;;22.80;99.90;;;;;;5043290;28;20484;-64
2023/07/30 06:57:24;;;;;;;26.50;25.50;;;22.90;99.90;;;;;;5040943;28;20479;-63
2023/07/30 06:59:51;;;;;;;26.80;25.80;;;22.90;99.90;;;;;;5041218;28;20484;-63
2023/07/30 07:02:19;;;;;;;27.27;25.97;;;22.90;99.90;;;;;;5044155;28;20515;-63
2023/07/30 07:04:46;;;;;;;29.47;28.00;;;22.80;99.90;;;;;;5044350;28;20478;-61
2023/07/30 07:07:13;;;;;;;28.00;27.00;;;22.80;99.90;;;;;;5040545;28;20984;-62
2023/07/30 07:09:40;;;;;;;28.83;27.53;;;22.80;99.90;;;;;;5040665;28;20511;-63
2023/07/30 07:12:08;;;;;;;26.33;25.23;;;22.80;99.90;;;;;;5042413;28;20507;-64
2023/07/30 07:14:35;;;;;;;27.90;26.80;;;22.80;99.90;;;;;;5044176;28;20479;-64
2023/07/30 07:17:02;;;;;;;26.33;24.90;;;22.80;99.90;;;;;;5042312;28;20483;-62
2023/07/30 07:19:31;;;;;;;26.77;25.60;;;22.80;99.90;;;;;;5040655;28;20484;-63
2023/07/30 07:21:58;;;;;;;26.93;25.87;;;22.80;99.90;;;;;;5041454;28;20899;-63
2023/07/30 07:24:24;;;;;;;26.40;25.50;;;22.80;99.90;;;;;;5043900;28;20472;-63
2023/07/30 07:26:51;;;;;;;26.80;25.80;;;22.80;99.90;;;;;;5043514;28;20807;-62
2023/07/30 07:29:18;;;;;;;28.07;26.77;;;22.80;99.90;;;;;;5040404;28;20473;-64
2023/07/30 07:31:46;;;;;;;26.20;25.20;;;22.80;99.90;;;;;;5040280;28;20500;-63
2023/07/30 07:34:13;;;;;;;26.20;25.20;;;22.80;99.90;;;;;;5043368;28;20471;-63
2023/07/30 07:36:41;;;;;;;27.70;26.50;;;22.80;99.90;;;;;;5043555;28;20452;-62
2023/07/30 07:39:08;;;;;;;26.43;25.23;;;22.70;99.90;;;;;;5040945;28;20479;-62
2023/07/30 07:41:35;;;;;;;24.97;23.80;;;22.80;99.90;;;;;;5035161;28;20475;-62
2023/07/30 07:44:02;;;;;;;24.77;23.47;;;22.70;99.90;;;;;;5043646;28;20487;-63
2023/07/30 07:46:29;;;;;;;25.87;24.87;;;22.80;99.90;;;;;;5040150;28;20480;-64
2023/07/30 07:48:56;;;;;;;25.93;24.50;;;22.80;99.90;;;;;;5040736;28;20485;-64
2023/07/30 07:51:23;;;;;;;25.73;24.73;;;22.70;99.90;;;;;;5041592;28;20456;-65
2023/07/30 07:53:52;;;;;;;22.90;22.20;;;22.70;99.90;;;;;;5043433;28;20962;-65
2023/07/30 07:56:19;;;;;;;25.90;24.53;;;22.80;99.90;;;;;;5032178;28;20456;-65
2023/07/30 07:58:46;;;;;;;26.90;25.70;;;22.70;99.90;;;;;;5039802;28;20448;-64
2023/07/30 08:01:12;;;;;;;26.50;24.67;;;22.80;99.90;;;;;;5033827;28;20448;-66
2023/07/30 08:03:39;;;;;;;26.43;25.33;;;22.80;99.90;;;;;;5039986;28;20535;-67
2023/07/30 08:06:07;;;;;;;41.60;40.00;;;22.80;99.90;;;;;;5042450;28;20531;-65
2023/07/30 08:08:36;;;;;;;52.60;40.50;;;22.80;99.90;;;;;;5043488;28;20883;-65
2023/07/30 08:11:07;;;;;;;39.13;36.60;;;22.80;99.90;;;;;;5029587;28;20446;-65
2023/07/30 08:13:34;;;;;;;40.20;38.30;;;22.90;99.90;;;;;;5043091;28;20830;-66
2023/07/30 08:16:01;;;;;;;38.97;37.30;;;22.90;99.90;;;;;;5042010;28;20509;-66
2023/07/30 08:18:29;;;;;;;40.20;38.30;;;23.00;99.90;;;;;;5038922;28;20449;-66
2023/07/30 08:20:55;;;;;;;39.80;38.40;;;23.10;99.90;;;;;;5040048;28;20496;-66
2023/07/30 08:23:22;;;;;;;38.37;36.97;;;23.20;99.90;;;;;;5042713;28;20563;-66
2023/07/30 08:25:50;;;;;;;41.07;39.47;;;23.40;99.90;;;;;;5043210;28;20487;-66
2023/07/30 08:28:18;;;;;;;40.50;38.77;;;23.50;99.90;;;;;;5039452;28;20456;-66
2023/07/30 08:30:45;;;;;;;39.20;37.50;;;23.60;99.90;;;;;;5035437;28;20491;-66
2023/07/30 08:33:12;;;;;;;39.57;37.30;;;23.80;99.90;;;;;;5042208;28;20496;-65
2023/07/30 08:35:39;;;;;;;40.53;38.83;;;23.90;99.90;;;;;;5043367;28;20472;-64
2023/07/30 08:38:06;;;;;;;40.20;38.53;;;24.10;99.90;;;;;;5040168;28;20476;-64
2023/07/30 08:40:34;;;;;;;40.73;38.80;;;24.20;99.90;;;;;;5034580;28;20906;-65
2023/07/30 08:43:03;;;;;;;46.73;44.20;;;24.30;99.90;;;;;;5040847;28;20929;-66
2023/07/30 08:45:31;;;;;;;40.47;38.67;;;24.40;99.90;;;;;;5043435;28;20483;-67
2023/07/30 08:47:58;;;;;;;42.17;39.73;;;24.60;99.90;;;;;;5042660;28;20900;-66
2023/07/30 08:50:26;;;;;;;42.27;40.47;;;24.60;99.90;;;;;;5035619;28;20489;-65
2023/07/30 08:52:54;;;;;;;40.43;38.63;;;24.70;99.90;;;;;;5039228;28;20650;-64
2023/07/30 08:55:22;;;;;;;42.50;40.40;;;24.80;99.90;;;;;;5042891;28;20513;-67
2023/07/30 08:57:50;;;;;;;44.57;42.87;;;24.90;99.90;;;;;;5041932;28;20452;-66
2023/07/30 09:00:21;;;;;;;41.57;40.03;;;25.00;99.90;;;;;;5039379;28;20571;-65
2023/07/30 09:02:53;;;;;;;41.30;39.50;;;25.10;99.90;;;;;;5079369;23;20514;-64
2023/07/30 09:05:21;;;;;;;41.47;39.57;;;25.10;99.90;;;;;;5031461;28;20840;-65
2023/07/30 09:07:48;;;;;;;40.87;39.17;;;25.20;99.90;;;;;;5042117;28;20461;-66
2023/07/30 09:10:16;;;;;;;40.73;39.33;;;25.30;99.90;;;;;;5039457;28;20939;-66
2023/07/30 09:12:43;;;;;;;41.33;39.53;;;25.30;99.90;;;;;;5033428;28;21011;-63
2023/07/30 09:15:11;;;;;;;41.27;39.57;;;25.40;99.90;;;;;;5022471;28;20481;-64
2023/07/30 09:17:38;;;;;;;42.83;40.90;;;25.50;99.90;;;;;;5022544;28;20483;-64
2023/07/30 09:20:07;;;;;;;41.00;39.30;;;25.40;99.60;;;;;;5020957;28;20483;-66
2023/07/30 09:22:39;;;;;;;40.83;38.93;;;25.50;99.20;;;;;;5024080;28;20531;-65
2023/07/30 09:25:07;;;;;;;38.43;36.83;;;25.50;99.00;;;;;;5020843;28;20453;-62
2023/07/30 09:27:34;;;;;;;40.53;38.80;;;25.50;99.10;;;;;;5019051;28;20968;-66
2023/07/30 09:30:04;;;;;;;44.67;42.30;;;25.50;98.80;;;;;;5020066;28;20493;-66
2023/07/30 09:32:32;;;;;;;41.93;40.30;;;25.60;98.40;;;;;;5024134;28;20544;-62
2023/07/30 09:35:07;;;;;;;40.83;39.23;;;25.50;98.10;;;;;;5025916;28;20539;-64
2023/07/30 09:37:38;;;;;;;41.67;40.00;;;25.60;98.20;;;;;;5022802;28;20445;-65
2023/07/30 09:40:06;;;;;;;40.90;39.30;;;25.60;97.60;;;;;;5024413;28;20448;-64
2023/07/30 09:42:37;;;;;;;39.70;38.00;;;25.70;97.20;;;;;;5027292;28;20513;-65
2023/07/30 09:45:06;;;;;;;40.63;38.73;;;25.70;97.00;;;;;;5024591;28;20499;-65
2023/07/30 09:47:35;;;;;;;40.03;38.33;;;25.70;96.80;;;;;;5022275;28;20480;-64
2023/07/30 09:50:03;;;;;;;39.37;37.57;;;25.80;96.50;;;;;;5023248;28;20450;-63
2023/07/30 09:52:32;;;;;;;41.50;40.00;;;25.80;96.10;;;;;;5026946;28;21018;-61
2023/07/30 09:54:59;;;;;;;40.93;39.33;;;25.80;96.10;;;;;;5025099;28;20484;-65
2023/07/30 09:57:26;;;;;;;40.30;38.67;;;25.80;95.70;;;;;;5022221;28;20447;-61
2023/07/30 09:59:54;;;;;;;39.80;38.27;;;25.90;95.90;;;;;;5022531;28;20496;-62
2023/07/30 10:02:21;;;;;;;41.00;39.20;;;25.90;95.20;;;;;;5023629;28;20478;-59
2023/07/30 10:04:51;;;;;;;42.37;40.60;;;26.00;94.70;;;;;;5022318;28;20477;-59
2023/07/30 10:07:22;;;;;;;42.87;40.83;;;26.00;94.50;;;;;;5025251;28;20440;-59
2023/07/30 10:09:55;;;;;;;42.20;40.60;;;26.00;94.00;;;;;;5025620;28;20488;-63
2023/07/30 10:12:27;;;;;;;40.90;39.00;;;26.00;94.00;;;;;;5030078;28;20477;-64
2023/07/30 10:14:54;;;;;;;41.40;39.30;;;26.00;93.60;;;;;;5025411;28;20800;-64
2023/07/30 10:17:21;;;;;;;39.90;38.50;;;26.10;93.20;;;;;;5013666;28;20488;-66
2023/07/30 10:19:49;;;;;;;42.20;40.43;;;26.10;93.10;;;;;;5021963;28;20488;-66
2023/07/30 10:22:24;;;;;;;41.30;39.57;;;26.20;92.70;;;;;;5026730;28;20525;-63
2023/07/30 10:24:59;;;;;;;44.67;42.77;;;26.20;94.00;;;;;;5035381;28;20827;-66
2023/07/30 10:27:28;;;;;;;40.33;38.73;;;26.30;93.30;;;;;;5015654;28;20449;-66
2023/07/30 10:30:11;;;;;;;43.70;42.10;;;26.40;92.80;;;;;;5023148;28;20476;-67
2023/07/30 10:32:42;;;;;;;45.37;43.57;;;26.30;92.00;;;;;;5023317;28;20501;-66
2023/07/30 10:35:09;;;;;;;42.80;41.00;;;26.30;91.80;;;;;;5030987;28;20453;-66
2023/07/30 10:37:36;;;;;;;41.60;39.90;;;26.30;91.70;;;;;;5022605;28;20485;-67
2023/07/30 10:40:18;;;;;;;42.60;41.00;;;26.30;91.50;;;;;;5024357;28;20449;-62
2023/07/30 10:42:45;;;;;;;40.90;39.20;;;26.20;91.50;;;;;;5030183;28;20489;-63
2023/07/30 10:45:12;;;;;;;40.20;38.80;;;26.20;91.40;;;;;;5024275;28;20433;-66
2023/07/30 10:47:42;;;;;;;41.30;39.80;;;26.20;91.20;;;;;;5026628;28;20534;-66
2023/07/30 10:50:11;;;;;;;42.47;40.97;;;26.30;91.00;;;;;;5024712;28;20450;-67
2023/07/30 10:52:38;;;;;;;43.63;41.80;;;26.30;91.00;;;;;;5026305;28;20477;-66
2023/07/30 10:55:06;;;;;;;42.60;41.00;;;26.40;90.90;;;;;;5023414;28;20477;-66
2023/07/30 10:57:34;;;;;;;46.73;44.83;;;26.40;90.90;;;;;;5025906;28;20480;-65
2023/07/30 11:00:01;;;;;;;45.17;43.17;;;26.40;90.70;;;;;;5024890;28;20507;-64
2023/07/30 11:14:40;;;;;;;43.90;42.10;;;26.50;90.50;;;;;;5102065;27;20550;-66
2023/07/30 11:17:07;;;;;;;43.70;42.07;;;26.60;88.40;;;;;;5090769;28;20471;-63
2023/07/30 11:19:34;;;;;;;42.47;40.83;;;26.60;87.40;;;;;;5077175;28;20978;-62
2023/07/30 11:22:00;;;;;;;43.47;41.63;;;26.60;87.20;;;;;;5078799;28;20431;-61
2023/07/30 11:24:35;;;;;;;45.63;43.47;;;26.70;86.50;;;;;;5079251;28;20493;-68
2023/07/30 11:27:03;;;;;;;50.27;47.77;;;26.70;85.70;;;;;;5089428;28;20980;-66
2023/07/30 11:29:29;;;;;;;49.43;47.23;;;26.80;85.00;;;;;;5076459;28;20471;-66
2023/07/30 11:31:59;;;;;;;49.73;47.40;;;26.80;84.70;;;;;;5077942;28;20928;-65
2023/07/30 11:34:28;;;;;;;47.10;44.80;;;26.80;83.70;;;;;;5079421;28;20476;-66
2023/07/30 11:36:55;;;;;;;48.57;46.73;;;26.80;83.20;;;;;;5091137;28;20844;-65
2023/07/30 11:39:24;;;;;;;46.30;44.30;;;26.80;82.60;;;;;;5076263;28;20474;-65
2023/07/30 11:41:51;;;;;;;49.57;47.33;;;26.90;82.40;;;;;;5076748;28;20501;-65
2023/07/30 11:44:31;;;;;;;49.37;47.47;;;26.90;82.00;;;;;;5079198;28;20510;-66
2023/07/30 11:46:59;;;;;;;48.53;46.03;;;26.90;82.00;;;;;;5090046;28;20876;-65
2023/07/30 11:49:26;;;;;;;48.47;46.47;;;26.90;81.60;;;;;;5076079;28;20562;-64
2023/07/30 11:52:05;;;;;;;47.63;45.73;;;26.90;80.90;;;;;;5076821;28;20479;-63
2023/07/30 11:54:32;;;;;;;45.63;43.83;;;26.80;80.90;;;;;;5079053;28;20994;-66
2023/07/30 11:56:59;;;;;;;45.87;43.70;;;26.90;80.90;;;;;;5089321;28;20875;-64
2023/07/30 11:59:26;;;;;;;46.67;44.80;;;26.90;80.90;;;;;;5075825;28;20471;-65
2023/07/30 12:01:53;;;;;;;46.60;44.60;;;26.90;80.70;;;;;;5076437;28;20471;-63
2023/07/30 12:04:21;;;;;;;47.70;45.80;;;26.90;80.90;;;;;;5084742;28;20505;-66
2023/07/30 12:06:50;;;;;;;48.00;45.77;;;27.00;80.00;;;;;;5078795;28;20471;-64
2023/07/30 12:09:19;;;;;;;47.10;45.27;;;26.90;79.40;;;;;;5075606;28;20863;-66
2023/07/30 12:11:48;;;;;;;50.50;48.50;;;26.90;79.00;;;;;;5075838;28;20447;-64
2023/07/30 12:14:15;;;;;;;49.23;47.27;;;26.90;78.60;;;;;;5077515;28;20944;-64
2023/07/30 12:16:42;;;;;;;48.40;46.67;;;26.80;78.60;;;;;;5062150;28;20479;-66
2023/07/30 12:19:09;;;;;;;46.83;45.03;;;26.80;78.30;;;;;;5065064;28;20481;-65
2023/07/30 12:21:38;;;;;;;45.10;43.43;;;26.70;78.60;;;;;;5065417;28;20467;-64
2023/07/30 12:24:05;;;;;;;45.67;43.97;;;26.80;78.80;;;;;;5073134;28;20502;-66
2023/07/30 12:26:31;;;;;;;48.23;46.13;;;26.70;78.60;;;;;;5065317;28;20475;-67
2023/07/30 12:28:58;;;;;;;48.53;46.37;;;26.60;77.70;;;;;;5063820;28;20477;-67
2023/07/30 12:31:25;;;;;;;52.50;50.30;;;26.50;76.70;;;;;;5061803;28;20885;-67
2023/07/30 12:33:52;;;;;;;55.27;52.97;;;26.50;76.30;;;;;;5077517;28;20486;-69
2023/07/30 12:36:19;;;;;;;57.90;55.20;;;26.50;76.30;;;;;;5061695;28;20960;-67
2023/07/30 12:38:47;;;;;;;54.37;51.87;;;26.50;75.90;;;;;;5061667;28;20989;-64
2023/07/30 12:41:14;;;;;;;55.37;53.03;;;26.40;75.50;;;;;;5065461;28;20463;-63
2023/07/30 12:43:41;;;;;;;52.83;50.53;;;26.30;75.60;;;;;;5080348;28;20509;-64